Latest Weather Observations for Adelaide Airport

IDS60801

Issued at 10:01 am CST Monday 1 May 2017 (issued every 30 minutes, with the page automatically refreshed every 10 minutes)

About weather observations | Map of weather stations | Latest weather observations for SA | Other Formats
Station Details ID: 023034 Name: ADELAIDE AIRPORT Lat: -34.95 Lon: 138.52 Height: 2.0 m
Data from the previous 72 hours. | See also: Recent months at Adelaide Airport
Date/Time
CST
Temp
°C
App
Temp
°C
Dew
Point
°C
Rel
Hum
%
Delta-T
°C
Wind Press
QNH
hPa
Press
MSL
hPa
Rain since
9am
mm
Dir  Spd
km/h
Gust
km/h
Spd
kts
Gust
kts
01/09:30am 18.0 15.6 13.8 76 2.4 NW 19 28 10 15 1016.9 1016.9 0.0
01/09:00am 17.6 16.7 12.7 73 2.7 NNE 9 13 5 7 1016.9 1016.9 0.0
01/08:30am 16.1 13.7 11.5 74 2.5 NE 15 20 8 11 1016.9 1016.9 0.0
01/08:00am 14.9 12.5 11.5 80 1.8 ENE 15 20 8 11 1016.8 1016.8 0.0
01/07:30am 13.8 10.9 10.9 83 1.5 ENE 17 20 9 11 1016.5 1016.5 0.0
01/07:00am 13.5 10.9 10.8 84 1.4 NE 15 19 8 10 1016.4 1016.4 0.0
01/06:30am 12.5 11.0 10.4 87 1.1 NE 9 13 5 7 1016.3 1016.3 0.0
01/06:00am 12.3 9.9 10.2 87 1.1 NE 13 17 7 9 1016.2 1016.2 0.0
01/05:30am 12.2 9.4 10.0 86 1.1 NNE 15 19 8 10 1016.1 1016.1 0.0
01/05:00am 12.6 9.4 9.9 83 1.4 NNE 17 19 9 10 1015.9 1015.9 0.0
01/04:30am 12.4 10.0 9.9 85 1.3 NE 13 13 7 7 1016.1 1016.1 0.0
01/04:00am 12.3 9.7 9.5 83 1.4 NNE 13 13 7 7 1016.2 1016.2 0.0
01/03:30am 12.9 10.4 9.8 81 1.6 NE 13 15 7 8 1016.1 1016.1 0.0
01/03:00am 12.7 10.1 9.5 81 1.6 NNE 13 13 7 7 1016.2 1016.2 0.0
01/02:30am 13.1 10.6 9.6 79 1.8 NNE 13 15 7 8 1016.4 1016.4 0.0
01/02:00am 13.6 11.1 9.7 77 2.0 NNE 13 15 7 8 1016.5 1016.5 0.0
01/01:30am 13.8 11.2 9.3 74 2.3 NNE 13 15 7 8 1016.8 1016.8 0.0
01/01:00am 13.6 11.0 9.3 75 2.2 NNE 13 17 7 9 1016.6 1016.6 0.0
01/12:30am 13.3 10.2 8.9 74 2.2 NE 15 17 8 9 1016.6 1016.6 0.0
01/12:00am 14.1 11.6 9.6 74 2.3 NNE 13 15 7 8 1017.0 1017.0 0.0
 
Date/Time
CST
Temp
°C
App
Temp
°C
Dew
Point
°C
Rel
Hum
%
Delta-T
°C
Wind Press
QNH
hPa
Press
MSL
hPa
Rain since
9am
mm
Dir  Spd
km/h
Gust
km/h
Spd
kts
Gust
kts
30/11:30pm 14.1 12.0 9.6 74 2.3 NNE 11 13 6 7 1017.4 1017.4 0.0
30/11:00pm 14.0 12.3 9.9 76 2.1 NNE 9 11 5 6 1017.7 1017.7 0.0
30/10:30pm 13.9 11.3 9.2 73 2.4 NNE 13 15 7 8 1017.9 1017.9 0.0
30/10:00pm 13.9 11.6 9.0 72 2.5 NE 11 13 6 7 1018.0 1018.0 0.0
30/09:30pm 14.2 11.5 9.1 71 2.6 NE 13 13 7 7 1018.1 1018.1 0.0
30/09:00pm 14.6 11.6 9.1 69 2.8 NE 15 15 8 8 1018.2 1018.2 0.0
30/08:30pm 14.9 13.0 9.0 68 3.0 NE 9 11 5 6 1018.4 1018.4 0.0
30/08:00pm 15.7 14.4 9.9 68 3.0 ENE 7 9 4 5 1018.4 1018.4 0.0
30/07:30pm 15.9 15.4 9.3 65 3.4 ENE 2 6 1 3 1018.3 1018.3 0.0
30/07:00pm 16.0 14.6 9.6 66 3.3 ENE 7 9 4 5 1018.3 1018.3 0.0
30/06:30pm 17.0 14.9 8.4 57 4.4 N 9 11 5 6 1018.6 1018.6 0.0
30/06:00pm 17.3 15.6 8.5 56 4.5 N 7 9 4 5 1018.5 1018.5 0.0
30/05:30pm 17.4 15.4 8.6 56 4.5 NNW 9 11 5 6 1018.6 1018.6 0.0
30/05:00pm 17.7 14.6 7.3 50 5.2 NW 13 15 7 8 1018.7 1018.7 0.0
30/04:30pm 17.7 14.7 7.6 51 5.1 NNW 13 17 7 9 1018.7 1018.7 0.0
30/04:00pm 17.8 14.4 7.5 51 5.2 NW 15 17 8 9 1018.8 1018.8 0.0
30/03:30pm 18.3 14.6 7.9 50 5.3 NW 17 24 9 13 1018.9 1018.9 0.0
30/03:00pm 18.7 15.6 7.2 47 5.8 NW 13 17 7 9 1019.1 1019.1 0.0
30/02:30pm 18.4 14.6 7.5 49 5.5 NW 17 24 9 13 1019.3 1019.3 0.0
30/02:00pm 17.9 13.7 7.3 50 5.3 WNW 19 24 10 13 1019.5 1019.5 0.0
30/01:30pm 17.7 13.9 7.6 51 5.1 NW 17 26 9 14 1019.7 1019.7 0.0
30/01:00pm 17.9 13.4 6.0 45 5.8 NNE 19 28 10 15 1020.0 1020.0 0.0
30/12:30pm 17.7 13.0 6.0 46 5.7 NNE 20 28 11 15 1020.5 1020.5 0.0
30/12:00pm 17.9 12.4 6.0 45 5.8 N 24 33 13 18 1021.1 1021.1 0.0
30/11:30am 17.7 12.3 6.5 48 5.5 NNE 24 33 13 18 1021.4 1021.4 0.0
30/11:00am 17.9 12.6 6.8 48 5.5 N 24 32 13 17 1021.8 1021.8 0.0
30/10:30am 17.9 12.8 7.6 51 5.2 N 24 32 13 17 1022.1 1022.1 0.0
30/10:00am 18.0 13.7 8.0 52 5.1 N 20 28 11 15 1022.2 1022.2 0.0
30/09:30am 17.1 12.7 7.5 53 4.8 N 20 28 11 15 1022.6 1022.6 0.0
30/09:00am 16.9 14.6 8.9 59 4.1 N 11 15 6 8 1022.8 1022.8 0.0
30/08:30am 16.2 14.8 9.6 65 3.4 NE 7 9 4 5 1023.0 1023.0 0.0
30/08:00am 15.8 14.6 10.3 70 2.9 NNW 7 9 4 5 1022.9 1022.9 0.0
30/07:30am 15.6 13.9 10.0 69 2.9 N 9 11 5 6 1023.0 1023.0 0.0
30/07:00am 15.5 13.9 10.3 71 2.7 NNE 9 11 5 6 1022.8 1022.8 0.0
30/06:30am 15.4 13.9 10.4 72 2.6 NE 9 9 5 5 1022.7 1022.7 0.0
30/06:00am 15.4 13.8 10.2 71 2.7 NE 9 11 5 6 1022.7 1022.7 0.0
30/05:30am 15.7 13.7 10.2 70 2.9 NE 11 15 6 8 1022.6 1022.6 0.0
30/05:00am 15.9 13.8 9.7 66 3.2 NE 11 13 6 7 1022.7 1022.7 0.0
30/04:30am 15.8 13.4 10.1 69 3.0 NNE 13 15 7 8 1022.7 1022.7 0.0
30/04:00am 16.0 13.9 9.9 67 3.2 NNE 11 13 6 7 1022.7 1022.7 0.0
30/03:30am 16.0 13.6 9.9 67 3.2 NNE 13 15 7 8 1022.6 1022.6 0.0
30/03:00am 16.1 14.0 9.7 66 3.3 NE 11 11 6 6 1022.8 1022.8 0.0
30/02:30am 16.0 14.0 10.3 69 3.0 NE 11 15 6 8 1022.9 1022.9 0.0
30/02:00am 16.1 14.6 10.4 69 3.0 NE 9 11 5 6 1023.4 1023.4 0.0
30/01:30am 15.9 14.5 11.0 72 2.6 NE 9 11 5 6 1023.4 1023.4 0.0
30/01:00am 15.7 14.9 11.6 76 2.2 NE 7 7 4 4 1023.6 1023.6 0.0
30/12:30am 15.8 14.6 11.5 75 2.3 ENE 9 11 5 6 1023.7 1023.7 0.0
30/12:00am 15.6 14.8 11.7 77 2.1 ENE 7 9 4 5 1023.9 1023.9 0.0
 
Date/Time
CST
Temp
°C
App
Temp
°C
Dew
Point
°C
Rel
Hum
%
Delta-T
°C
Wind Press
QNH
hPa
Press
MSL
hPa
Rain since
9am
mm
Dir  Spd
km/h
Gust
km/h
Spd
kts
Gust
kts
29/11:30pm 15.9 15.1 11.6 75 2.3 NE 7 11 4 6 1024.2 1024.2 0.0
29/11:00pm 15.9 15.3 11.8 76 2.2 NE 6 7 3 4 1024.3 1024.3 0.0
29/10:30pm 16.1 15.2 11.4 73 2.5 NE 7 9 4 5 1024.6 1024.6 0.0
29/10:00pm 16.2 15.9 11.4 73 2.6 SSW 4 9 2 5 1024.7 1024.7 0.0
29/09:30pm 16.5 15.1 10.9 69 3.0 NNE 9 13 5 7 1024.7 1024.7 0.0
29/09:00pm 16.5 14.4 11.3 71 2.8 NE 13 15 7 8 1024.8 1024.8 0.0
29/08:30pm 16.6 16.2 11.2 70 2.9 SSE 4 7 2 4 1024.9 1024.9 0.0
29/08:00pm 16.9 15.3 10.3 65 3.5 NE 9 11 5 6 1024.8 1024.8 0.0
29/07:30pm 16.7 15.4 11.1 69 3.0 NE 9 11 5 6 1024.9 1024.9 0.0
29/07:00pm 16.9 16.1 10.9 67 3.2 ENE 6 7 3 4 1024.9 1024.9 0.0
29/06:30pm 16.7 17.1 11.1 69 3.0 CALM 0 0 0 0 1024.9 1024.9 0.0
29/06:00pm 16.8 17.2 11.4 70 2.9 CALM 0 0 0 0 1024.7 1024.7 0.0
29/05:30pm 17.1 17.4 10.9 67 3.3 CALM 0 0 0 0 1024.7 1024.7 0.0
29/05:00pm 17.1 17.2 10.3 64 3.6 CALM 0 0 0 0 1024.5 1024.5 0.0
29/04:30pm 17.1 16.0 10.7 66 3.4 SW 7 7 4 4 1024.6 1024.6 0.0
29/04:00pm 17.6 16.1 10.4 62 3.8 W 9 11 5 6 1024.7 1024.7 0.0
29/03:30pm 17.7 16.0 9.9 60 4.1 WNW 9 13 5 7 1024.7 1024.7 0.0
29/03:00pm 17.7 15.7 10.1 61 4.0 W 11 13 6 7 1024.9 1024.9 0.0
29/02:30pm 17.7 15.3 9.9 60 4.1 W 13 15 7 8 1024.9 1024.9 0.0
29/02:00pm 17.6 15.5 9.8 60 4.1 WSW 11 17 6 9 1025.0 1025.0 0.0
29/01:30pm 18.1 15.7 10.2 60 4.2 WSW 13 20 7 11 1025.0 1025.0 0.0
29/01:00pm 18.0 16.4 10.3 60 4.1 WSW 9 11 5 6 1025.4 1025.4 0.0
29/12:30pm 17.3 15.2 9.6 60 4.0 W 11 17 6 9 1025.9 1025.9 0.0
29/12:00pm 17.6 14.9 8.9 56 4.5 SW 13 19 7 10 1026.3 1026.3 0.0
29/11:30am 17.9 16.8 9.9 59 4.2 NNW 6 11 3 6 1026.6 1026.6 0.0
29/11:00am 17.3 15.7 10.1 62 3.8 NNE 9 13 5 7 1026.9 1026.9 0.0
29/10:30am 16.6 15.2 11.0 69 3.0 NNE 9 11 5 6 1027.0 1027.0 0.0
29/10:00am 16.1 14.9 11.6 74 2.4 ENE 9 11 5 6 1027.1 1027.1 0.0
29/09:30am 15.9 15.1 13.0 83 1.6 NE 9 11 5 6 1027.1 1027.1 0.0
29/09:00am 15.1 14.3 12.9 87 1.2 NE 9 11 5 6 1026.9 1026.9 1.4
29/08:30am 14.9 14.2 13.1 89 1.0 NNE 9 11 5 6 1026.7 1026.7 1.4
29/08:00am 14.5 13.8 13.2 92 0.7 ENE 9 13 5 7 1026.6 1026.6 1.4
29/07:30am 14.5 13.8 13.2 92 0.7 NE 9 11 5 6 1026.3 1026.3 1.4
29/07:00am 14.2 13.5 13.1 93 0.6 NE 9 11 5 6 1026.0 1026.0 1.4
29/06:30am 14.1 13.8 13.4 96 0.4 ENE 7 9 4 5 1025.8 1025.8 1.4
29/06:00am 14.2 14.0 13.5 96 0.4 NE 7 9 4 5 1025.6 1025.6 1.4
29/05:30am 14.1 14.4 13.4 96 0.4 E 4 7 2 4 1025.6 1025.6 1.4
29/05:00am 14.1 13.8 13.4 96 0.4 NE 7 9 4 5 1025.3 1025.3 1.4
29/04:30am 13.8 13.5 13.3 97 0.3 E 7 9 4 5 1025.3 1025.3 1.4
29/04:00am 13.9 13.8 13.4 97 0.3 ENE 6 7 3 4 1025.3 1025.3 1.4
29/03:30am 13.8 13.5 13.4 97 0.2 ENE 7 9 4 5 1025.4 1025.4 1.4
29/03:00am 13.7 13.4 13.2 97 0.3 E 7 9 4 5 1025.5 1025.5 1.4
29/02:30am 13.8 13.1 13.1 96 0.4 NE 9 11 5 6 1025.7 1025.7 1.4
29/02:00am 14.0 15.0 13.3 96 0.4 CALM 0 0 0 0 1026.0 1026.0 1.2
29/01:50am 13.9 14.8 13.0 94 0.5 CALM 0 7 0 4 1026.0 1026.0 1.2
29/01:38am 14.1 13.7 13.0 93 0.6 NNE 7 11 4 6 1026.0 1026.0 1.0
29/01:30am 14.2 13.1 13.1 93 0.6 ENE 11 13 6 7 1026.0 1026.0 0.8
29/01:00am 14.1 13.0 13.2 94 0.5 E 11 15 6 8 1025.9 1025.9 0.6
29/12:30am 14.3 13.7 13.4 94 0.5 ENE 9 11 5 6 1026.2 1026.2 0.6
29/12:00am 14.3 13.6 13.2 93 0.6 E 9 9 5 5 1026.3 1026.3 0.6
 
Date/Time
CST
Temp
°C
App
Temp
°C
Dew
Point
°C
Rel
Hum
%
Delta-T
°C
Wind Press
QNH
hPa
Press
MSL
hPa
Rain since
9am
mm
Dir  Spd
km/h
Gust
km/h
Spd
kts
Gust
kts
28/11:30pm 14.5 14.3 12.9 90 0.9 ESE 6 9 3 5 1026.5 1026.5 0.6
28/11:00pm 15.0 14.5 12.8 87 1.2 SE 7 9 4 5 1026.9 1026.9 0.6
28/10:30pm 14.9 13.8 13.1 89 1.0 ESE 11 13 6 7 1026.8 1026.8 0.6
28/10:00pm 15.1 14.6 12.7 85 1.3 NNE 7 9 4 5 1027.1 1027.1 0.6
28/09:30pm 15.1 14.2 12.5 84 1.4 N 9 11 5 6 1027.0 1027.0 0.6
28/09:00pm 15.6 16.1 11.7 77 2.1 CALM 0 0 0 0 1026.8 1026.8 0.6
28/08:30pm 15.3 16.0 12.2 82 1.7 CALM 0 0 0 0 1026.7 1026.7 0.6
28/08:00pm 15.5 14.9 11.8 78 2.0 ENE 6 9 3 5 1026.7 1026.7 0.6
28/07:30pm 15.5 14.3 11.6 77 2.1 ESE 9 13 5 7 1026.7 1026.7 0.6
28/07:00pm 15.5 14.0 12.0 79 1.9 SE 11 13 6 7 1026.8 1026.8 0.6
28/06:30pm 15.9 14.4 11.8 76 2.2 SSE 11 15 6 8 1026.7 1026.7 0.6
28/06:00pm 16.7 15.7 10.9 68 3.1 SW 7 9 4 5 1026.5 1026.5 0.6
28/05:30pm 16.9 15.1 10.7 67 3.3 WSW 11 13 6 7 1026.5 1026.5 0.6
28/05:00pm 17.1 14.7 10.1 63 3.7 SW 13 17 7 9 1026.5 1026.5 0.6
28/04:30pm 17.3 14.6 10.5 64 3.6 SW 15 19 8 10 1026.5 1026.5 0.6
28/04:00pm 17.4 14.3 10.4 63 3.7 SW 17 22 9 12 1026.5 1026.5 0.6
28/03:30pm 17.6 14.9 10.4 62 3.8 SSW 15 20 8 11 1026.6 1026.6 0.6
28/03:00pm 17.8 15.3 9.8 59 4.2 SSW 13 20 7 11 1026.5 1026.5 0.6
28/02:30pm 17.5 15.8 12.6 73 2.7 SW 13 17 7 9 1026.7 1026.7 0.6
28/02:00pm 17.2 16.0 11.5 69 3.1 SW 9 17 5 9 1026.9 1026.9 0.6
28/01:30pm 16.7 16.3 12.9 78 2.1 SSE 7 11 4 6 1027.1 1027.1 0.6
28/01:00pm 15.7 14.4 13.7 88 1.1 ESE 13 13 7 7 1027.4 1027.4 0.6
28/12:41pm 15.1 13.4 13.7 91 0.8 SSE 15 19 8 10 1027.6 1027.6 0.6
28/12:30pm 15.0 12.9 13.7 92 0.7 SSE 17 22 9 12 1027.8 1027.8 0.6
28/12:24pm 15.1 13.0 13.5 90 0.9 S 17 24 9 13 1027.9 1027.9 0.4
28/12:00pm 16.5 17.0 14.0 85 1.4 ESE 4 9 2 5 1028.2 1028.2 0.4
28/11:30am 15.6 15.6 13.6 88 1.1 ESE 6 7 3 4 1028.4 1028.4 0.4
28/11:00am 15.2 14.6 13.6 90 0.9 NE 9 11 5 6 1028.6 1028.6 0.2
28/10:48am 15.1 14.6 13.7 91 0.8 ENE 9 11 5 6 1028.7 1028.7 0.2
28/10:30am 15.1 13.8 13.7 91 0.8 E 13 15 7 8 1028.7 1028.7 0.2
28/10:22am 15.1 13.8 13.8 92 0.7 E 13 17 7 9 1028.7 1028.7 0.0

Other Formats:

Comma delimited format used in spreadsheet applications
http://www.bom.gov.au/fwo/IDS60801/IDS60801.94672.axf

JavaScript Object Notation format (JSON) in row-major order
http://www.bom.gov.au/fwo/IDS60801/IDS60801.94672.json